createdAt,value
2022-10-02T00:02:34.226Z,98808.41
2022-10-02T00:05:23.659Z,98822.78
2022-10-02T00:08:24.299Z,98815.50
2022-10-02T00:10:57.636Z,98812.91
2022-10-02T00:13:40.754Z,98804.25
2022-10-02T00:16:21.762Z,98806.91
2022-10-02T00:18:51.219Z,98805.63
2022-10-02T00:21:45.103Z,98809.47
2022-10-02T00:24:18.037Z,98817.78
2022-10-02T00:27:01.965Z,98811.44
2022-10-02T00:29:44.337Z,98818.94
2022-10-02T00:32:36.529Z,98812.34
2022-10-02T00:35:30.285Z,98819.50
2022-10-02T00:38:08.910Z,98818.50
2022-10-02T00:40:47.828Z,98816.56
2022-10-02T00:43:30.539Z,98819.56
2022-10-02T00:46:45.095Z,98817.59
2022-10-02T00:49:18.526Z,98819.41
2022-10-02T00:51:56.994Z,98819.41
2022-10-02T00:54:46.305Z,98817.09
2022-10-02T00:57:40.045Z,98809.72
2022-10-02T01:00:14.755Z,98811.72
2022-10-02T01:03:03.869Z,98819.00
2022-10-02T01:05:31.405Z,98820.84
2022-10-02T01:07:59.458Z,98813.09
2022-10-02T01:10:27.597Z,98818.28
2022-10-02T01:12:57.007Z,98820.53
2022-10-02T01:15:37.774Z,98822.63
2022-10-02T01:18:06.733Z,98819.25
2022-10-02T01:20:41.904Z,98816.44
2022-10-02T01:23:50.921Z,98819.25
2022-10-02T01:26:18.721Z,98822.94
2022-10-02T01:28:46.391Z,98820.88
2022-10-02T01:31:15.547Z,98813.97
2022-10-02T01:33:45.041Z,98815.28
2022-10-02T01:36:14.047Z,98808.66
2022-10-02T01:38:43.417Z,98808.81
2022-10-02T01:41:11.847Z,98811.63
2022-10-02T01:43:53.325Z,98815.28
2022-10-02T01:46:36.689Z,98807.25
2022-10-02T01:49:16.304Z,98806.91
2022-10-02T01:51:56.977Z,98803.03
2022-10-02T01:54:56.697Z,98807.00
2022-10-02T01:57:52.597Z,98807.91
2022-10-02T02:00:26.390Z,98813.34
2022-10-02T02:03:05.975Z,98800.97
2022-10-02T02:05:48.049Z,98800.78
2022-10-02T02:08:47.818Z,98800.78
2022-10-02T02:11:19.136Z,98805.94
2022-10-02T02:13:58.874Z,98798.03
2022-10-02T02:16:33.570Z,98786.50
2022-10-02T02:19:21.317Z,98795.22
2022-10-02T02:21:59.127Z,98791.72
2022-10-02T02:24:34.766Z,98791.88
2022-10-02T02:27:04.180Z,98787.59
2022-10-02T02:29:35.908Z,98793.78
2022-10-02T02:32:08.082Z,98792.88
2022-10-02T02:34:47.319Z,98791.25
2022-10-02T02:37:19.442Z,98794.28
2022-10-02T02:39:52.995Z,98786.44
2022-10-02T02:42:25.992Z,98783.59
2022-10-02T02:45:26.321Z,98783.94
2022-10-02T02:47:57.011Z,98783.75
2022-10-02T02:50:34.701Z,98788.66
2022-10-02T02:53:11.715Z,98784.09
2022-10-02T02:55:45.884Z,98782.81
2022-10-02T02:58:49.571Z,98788.88
2022-10-02T03:01:18.817Z,98788.03
2022-10-02T03:03:46.879Z,98782.69
2022-10-02T03:06:17.592Z,98780.31
2022-10-02T03:08:47.873Z,98776.22
2022-10-02T03:11:29.770Z,98784.13
2022-10-02T03:14:21.288Z,98785.22
2022-10-02T03:17:11.579Z,98781.75
2022-10-02T03:20:00.974Z,98784.78
2022-10-02T03:22:47.120Z,98781.47
2022-10-02T03:25:20.712Z,98781.59
2022-10-02T03:28:03.966Z,98785.41
2022-10-02T03:30:32.368Z,98784.47
2022-10-02T03:33:01.420Z,98787.47
2022-10-02T03:35:30.318Z,98788.41
2022-10-02T03:38:03.659Z,98793.34
2022-10-02T03:40:31.279Z,98785.13
2022-10-02T03:42:58.813Z,98780.22
2022-10-02T03:45:49.923Z,98784.19
2022-10-02T03:48:15.612Z,98782.13
2022-10-02T03:50:42.998Z,98783.56
2022-10-02T03:53:21.853Z,98799.19
2022-10-02T03:56:03.161Z,98798.06
2022-10-02T03:58:30.813Z,98787.44
2022-10-02T04:01:04.574Z,98790.91
2022-10-02T04:03:48.635Z,98796.88
2022-10-02T04:06:26.600Z,98796.88
2022-10-02T04:09:04.399Z,98793.19
2022-10-02T04:12:00.124Z,98797.72
2022-10-02T04:14:47.744Z,98788.22
2022-10-02T04:17:22.752Z,98794.75
2022-10-02T04:20:13.234Z,98787.91
2022-10-02T04:22:48.337Z,98795.03
2022-10-02T04:25:21.611Z,98790.88
2022-10-02T04:27:59.345Z,98793.78
2022-10-02T04:30:27.008Z,98780.81
2022-10-02T04:32:54.875Z,98781.72
2022-10-02T04:35:25.165Z,98784.38
2022-10-02T04:38:08.995Z,98779.00
2022-10-02T04:40:50.759Z,98779.78
2022-10-02T04:43:24.411Z,98774.31
2022-10-02T04:46:04.480Z,98780.09
2022-10-02T04:48:50.754Z,98773.34
2022-10-02T04:51:33.966Z,98772.53
2022-10-02T04:54:24.923Z,98769.31
2022-10-02T04:57:07.361Z,98740.09
2022-10-02T05:00:03.235Z,98767.25
2022-10-02T05:02:54.187Z,98764.34
2022-10-02T05:05:55.708Z,98752.41
2022-10-02T05:09:04.554Z,98746.03
2022-10-02T05:11:55.732Z,98738.75
2022-10-02T05:14:32.259Z,98737.28
2022-10-02T05:17:05.272Z,98737.50
2022-10-02T05:19:44.803Z,98736.84
2022-10-02T05:22:50.314Z,98726.72
2022-10-02T05:25:37.830Z,98735.47
2022-10-02T05:28:19.024Z,98740.44
2022-10-02T05:31:09.716Z,98728.97
2022-10-02T05:34:08.840Z,98748.63
2022-10-02T05:36:57.154Z,98738.25
2022-10-02T05:39:48.263Z,98728.81
2022-10-02T05:42:28.079Z,98729.69
2022-10-02T05:45:03.132Z,98734.97
2022-10-02T05:47:36.760Z,98734.63
2022-10-02T05:50:17.285Z,98725.34
2022-10-02T05:53:32.263Z,98718.56
2022-10-02T05:56:24.982Z,98727.16
2022-10-02T05:58:58.707Z,98722.66
2022-10-02T06:01:32.233Z,98736.19
2022-10-02T06:04:20.183Z,98732.13
2022-10-02T06:06:55.296Z,98733.56
2022-10-02T06:09:34.522Z,98731.38
2022-10-02T06:12:05.080Z,98727.28
2022-10-02T06:14:32.461Z,98736.50
2022-10-02T06:17:05.764Z,98723.00
2022-10-02T06:19:40.939Z,98730.97
2022-10-02T06:22:14.191Z,98738.44
2022-10-02T06:25:09.262Z,98723.03
2022-10-02T06:27:48.718Z,98734.34
2022-10-02T06:30:20.261Z,98718.03
2022-10-02T06:33:06.140Z,98731.00
2022-10-02T06:35:45.728Z,98717.03
2022-10-02T06:38:22.740Z,98714.66
2022-10-02T06:40:57.923Z,98708.22
2022-10-02T06:43:40.727Z,98704.16
2022-10-02T06:46:28.487Z,98710.38
2022-10-02T06:49:26.657Z,98707.03
2022-10-02T06:52:13.012Z,98700.19
2022-10-02T06:55:09.973Z,98694.75
2022-10-02T06:57:59.708Z,98708.75
2022-10-02T07:00:27.677Z,98686.25
2022-10-02T07:03:14.414Z,98693.69
2022-10-02T07:06:00.632Z,98692.59
2022-10-02T07:08:50.729Z,98687.44
2022-10-02T07:11:23.996Z,98678.31
2022-10-02T07:14:19.775Z,98686.66
2022-10-02T07:17:05.938Z,98685.25
2022-10-02T07:19:57.854Z,98673.97
2022-10-02T07:22:46.036Z,98679.47
2022-10-02T07:25:44.202Z,98676.34
2022-10-02T07:28:15.921Z,98664.28
2022-10-02T07:30:49.577Z,98670.63
2022-10-02T07:33:54.713Z,98679.00
2022-10-02T07:36:47.876Z,98692.25
2022-10-02T07:39:39.817Z,98682.97
2022-10-02T07:42:12.975Z,98660.84
2022-10-02T07:44:43.625Z,98662.44
2022-10-02T07:47:21.832Z,98675.63
2022-10-02T07:49:49.230Z,98665.69
2022-10-02T07:52:45.688Z,98673.88
2022-10-02T07:55:26.352Z,98664.22
2022-10-02T07:57:56.732Z,98660.38
2022-10-02T08:00:25.945Z,98658.09
2022-10-02T08:03:08.744Z,98656.09
2022-10-02T08:05:47.036Z,98671.16
2022-10-02T08:08:30.818Z,98676.84
2022-10-02T08:11:39.539Z,98666.34
2022-10-02T08:14:07.682Z,98666.75
2022-10-02T08:16:43.708Z,98675.38
2022-10-02T08:19:18.742Z,98662.16
2022-10-02T08:22:15.637Z,98668.09
2022-10-02T08:24:51.193Z,98669.00
2022-10-02T08:27:44.179Z,98667.47
2022-10-02T08:30:15.199Z,98658.91
2022-10-02T08:32:44.108Z,98655.38
2022-10-02T08:35:20.134Z,98665.91
2022-10-02T08:38:13.329Z,98654.59
2022-10-02T08:41:04.584Z,98656.91
2022-10-02T08:44:16.503Z,98657.72
2022-10-02T08:47:03.529Z,98658.50
2022-10-02T08:49:47.667Z,98662.00
2022-10-02T08:52:45.429Z,98662.00
2022-10-02T08:55:42.460Z,98633.53
2022-10-02T08:58:25.026Z,98650.25
2022-10-02T09:01:09.702Z,98637.00
2022-10-02T09:04:01.710Z,98647.91
2022-10-02T09:06:44.301Z,98637.75
2022-10-02T09:09:35.984Z,98645.88
2022-10-02T09:12:38.276Z,98637.22
2022-10-02T09:15:16.175Z,98659.09
2022-10-02T09:18:18.138Z,98626.31
2022-10-02T09:21:15.833Z,98635.56
2022-10-02T09:24:12.244Z,98626.19
2022-10-02T09:26:51.886Z,98643.22
2022-10-02T09:29:52.279Z,98640.09
2022-10-02T09:32:43.632Z,98640.34
2022-10-02T09:35:25.068Z,98643.41
2022-10-02T09:38:21.440Z,98614.25
2022-10-02T09:41:24.704Z,98625.00
2022-10-02T09:44:29.586Z,98628.44
2022-10-02T09:47:43.843Z,98625.91
2022-10-02T09:50:46.891Z,98606.78
2022-10-02T09:53:32.925Z,98624.19
2022-10-02T09:56:22.530Z,98641.47
2022-10-02T09:58:57.427Z,98626.75
2022-10-02T10:02:05.093Z,98631.44
2022-10-02T10:05:06.907Z,98635.56
2022-10-02T10:07:58.554Z,98614.78
2022-10-02T10:10:47.255Z,98642.28
2022-10-02T10:13:39.273Z,98615.84
2022-10-02T10:16:14.034Z,98622.34
2022-10-02T10:18:53.674Z,98615.56
2022-10-02T10:21:59.398Z,98623.47
2022-10-02T10:24:48.673Z,98597.88
2022-10-02T10:27:43.388Z,98633.56
2022-10-02T10:30:11.451Z,98599.13
2022-10-02T10:32:52.540Z,98602.72
2022-10-02T10:35:26.208Z,98590.94
2022-10-02T10:38:38.616Z,98602.72
2022-10-02T10:41:24.742Z,98609.84
2022-10-02T10:44:01.413Z,98587.56
2022-10-02T10:47:15.566Z,98593.31
2022-10-02T10:50:04.713Z,98594.03
2022-10-02T10:52:51.911Z,98573.81
2022-10-02T10:55:37.803Z,98594.22
2022-10-02T10:58:27.023Z,98578.53
2022-10-02T11:01:04.257Z,98577.47
2022-10-02T11:04:04.462Z,98577.28
2022-10-02T11:07:01.082Z,98592.56
2022-10-02T11:10:16.025Z,98568.28
2022-10-02T11:13:19.499Z,98560.38
2022-10-02T11:16:06.883Z,98581.75
2022-10-02T11:18:41.105Z,98567.34
2022-10-02T11:21:14.408Z,98563.78
2022-10-02T11:24:00.774Z,98555.22
2022-10-02T11:26:40.115Z,98548.97
2022-10-02T11:29:35.614Z,98564.44
2022-10-02T11:32:14.548Z,98548.63
2022-10-02T11:34:54.043Z,98546.50
2022-10-02T11:37:53.429Z,98560.53
2022-10-02T11:40:33.285Z,98528.84
2022-10-02T11:43:41.769Z,98540.66
2022-10-02T11:46:28.268Z,98552.25
2022-10-02T11:49:11.808Z,98538.66
2022-10-02T11:51:51.245Z,98538.81
2022-10-02T11:54:36.821Z,98540.03
2022-10-02T11:57:16.323Z,98526.13
2022-10-02T12:00:14.361Z,98549.84
2022-10-02T12:03:06.140Z,98551.72
2022-10-02T12:05:47.108Z,98552.47
2022-10-02T12:08:44.713Z,98514.97
2022-10-02T12:11:42.430Z,98515.13
2022-10-02T12:14:24.536Z,98529.34
2022-10-02T12:17:10.251Z,98511.19
2022-10-02T12:20:13.326Z,98520.13
2022-10-02T12:23:16.015Z,98551.63
2022-10-02T12:26:10.842Z,98560.25
2022-10-02T12:28:56.368Z,98521.91
2022-10-02T12:31:54.057Z,98538.00
2022-10-02T12:34:46.473Z,98549.31
2022-10-02T12:37:38.348Z,98539.03
2022-10-02T12:40:14.363Z,98518.00
2022-10-02T12:43:17.048Z,98524.44
2022-10-02T12:46:26.835Z,98533.63
2022-10-02T12:49:16.678Z,98524.56
2022-10-02T12:52:06.201Z,98545.47
2022-10-02T12:54:45.874Z,98534.56
2022-10-02T12:57:52.417Z,98521.94
2022-10-02T13:00:24.557Z,98537.19
2022-10-02T13:03:27.509Z,98532.22
2022-10-02T13:06:26.278Z,98526.50
2022-10-02T13:09:08.948Z,98535.69
2022-10-02T13:12:20.975Z,98524.00
2022-10-02T13:15:06.706Z,98524.81
2022-10-02T13:17:46.547Z,98533.22
2022-10-02T13:20:32.834Z,98525.84
2022-10-02T13:23:29.455Z,98536.94
2022-10-02T13:26:09.652Z,98536.13
2022-10-02T13:28:51.840Z,98535.97
2022-10-02T13:31:28.607Z,98531.25
2022-10-02T13:34:25.274Z,98530.31
2022-10-02T13:37:25.416Z,98532.22
2022-10-02T13:40:18.115Z,98519.41
2022-10-02T13:42:51.352Z,98509.78
2022-10-02T13:45:23.498Z,98527.06
2022-10-02T13:48:15.620Z,98524.44
2022-10-02T13:50:50.475Z,98521.31
2022-10-02T13:53:56.173Z,98516.34
2022-10-02T13:56:48.112Z,98530.41
2022-10-02T13:59:21.582Z,98521.91
2022-10-02T14:02:07.938Z,98523.66
2022-10-02T14:04:56.641Z,98526.34
2022-10-02T14:07:44.639Z,98524.25
2022-10-02T14:10:29.131Z,98517.56
2022-10-02T14:13:28.965Z,98517.00
2022-10-02T14:16:07.902Z,98528.69
2022-10-02T14:18:48.324Z,98512.09
2022-10-02T14:21:51.274Z,98507.97
2022-10-02T14:25:01.156Z,98511.16
2022-10-02T14:28:02.644Z,98511.13
2022-10-02T14:31:00.702Z,98507.28
2022-10-02T14:33:58.049Z,98505.59
2022-10-02T14:37:17.096Z,98507.28
2022-10-02T14:39:45.980Z,98509.72
2022-10-02T14:42:38.394Z,98498.38
2022-10-02T14:45:21.970Z,98489.31
2022-10-02T14:48:14.753Z,98495.31
2022-10-02T14:50:54.367Z,98485.94
2022-10-02T14:53:27.775Z,98491.69
2022-10-02T14:56:20.112Z,98485.81
2022-10-02T14:59:10.142Z,98480.97
2022-10-02T15:01:54.313Z,98483.31
2022-10-02T15:04:40.055Z,98480.31
2022-10-02T15:07:15.303Z,98485.50
2022-10-02T15:10:04.634Z,98491.53
2022-10-02T15:12:43.843Z,98484.97
2022-10-02T15:15:18.143Z,98475.06
2022-10-02T15:17:56.920Z,98476.00
2022-10-02T15:20:26.886Z,98475.75
2022-10-02T15:23:00.854Z,98475.91
2022-10-02T15:25:41.519Z,98472.88
2022-10-02T15:28:35.721Z,98469.38
2022-10-02T15:31:36.079Z,98477.31
2022-10-02T15:34:25.243Z,98473.84
2022-10-02T15:37:00.827Z,98471.75
2022-10-02T15:39:37.860Z,98479.84
2022-10-02T15:42:09.573Z,98477.38
2022-10-02T15:45:01.841Z,98479.84
2022-10-02T15:47:38.496Z,98479.31
2022-10-02T15:50:28.396Z,98468.16
2022-10-02T15:53:18.664Z,98479.06
2022-10-02T15:56:00.798Z,98469.22
2022-10-02T15:58:49.693Z,98464.47
2022-10-02T16:01:43.563Z,98466.94
2022-10-02T16:04:23.826Z,98471.56
2022-10-02T16:07:12.863Z,98469.81
2022-10-02T16:09:52.495Z,98474.97
2022-10-02T16:13:09.211Z,98460.75
2022-10-02T16:15:49.986Z,98462.94
2022-10-02T16:18:39.774Z,98466.69
2022-10-02T16:21:15.540Z,98451.44
2022-10-02T16:23:46.121Z,98455.97
2022-10-02T16:26:25.220Z,98453.16
2022-10-02T16:28:55.484Z,98455.97
2022-10-02T16:31:37.489Z,98459.47
2022-10-02T16:34:26.585Z,98456.47
2022-10-02T16:37:09.254Z,98458.84
2022-10-02T16:39:59.294Z,98458.66
2022-10-02T16:42:32.887Z,98458.72
2022-10-02T16:45:37.172Z,98459.25
2022-10-02T16:48:15.196Z,98447.84
2022-10-02T16:51:09.073Z,98457.88
2022-10-02T16:53:52.132Z,98461.47
2022-10-02T16:56:32.259Z,98430.53
2022-10-02T16:59:12.099Z,98458.94
2022-10-02T17:02:05.515Z,98450.13
2022-10-02T17:05:15.356Z,98452.41
2022-10-02T17:08:00.576Z,98452.41
2022-10-02T17:10:53.436Z,98442.53
2022-10-02T17:13:44.767Z,98445.34
2022-10-02T17:16:21.044Z,98449.19
2022-10-02T17:19:14.038Z,98438.47
2022-10-02T17:21:48.558Z,98447.25
2022-10-02T17:25:00.716Z,98439.31
2022-10-02T17:27:34.456Z,98444.66
2022-10-02T17:30:24.374Z,98436.47
2022-10-02T17:33:03.265Z,98450.66
2022-10-02T17:35:57.327Z,98439.69
2022-10-02T17:38:41.063Z,98428.88
2022-10-02T17:41:22.892Z,98438.09
2022-10-02T17:44:18.435Z,98442.84
2022-10-02T17:47:01.145Z,98441.75
2022-10-02T17:49:46.885Z,98437.34
2022-10-02T17:52:43.826Z,98436.19
2022-10-02T17:55:59.328Z,98437.50
2022-10-02T17:58:45.468Z,98436.03
2022-10-02T18:01:41.034Z,98439.84
2022-10-02T18:04:37.650Z,98428.72
2022-10-02T18:07:26.455Z,98440.97
2022-10-02T18:10:21.924Z,98424.06
2022-10-02T18:13:20.647Z,98431.31
2022-10-02T18:16:06.713Z,98433.34
2022-10-02T18:18:40.571Z,98429.31
2022-10-02T18:21:23.842Z,98434.19
2022-10-02T18:24:28.875Z,98434.00
2022-10-02T18:27:26.985Z,98434.97
2022-10-02T18:30:09.076Z,98431.22
2022-10-02T18:33:13.372Z,98427.50
2022-10-02T18:36:00.339Z,98420.94
2022-10-02T18:38:43.954Z,98427.31
2022-10-02T18:41:41.379Z,98419.47
2022-10-02T18:44:35.821Z,98418.22
2022-10-02T18:47:49.783Z,98418.75
2022-10-02T18:50:32.176Z,98415.03
2022-10-02T18:53:30.870Z,98416.06
2022-10-02T18:56:06.968Z,98417.63
2022-10-02T18:58:53.616Z,98422.84
2022-10-02T19:01:33.139Z,98425.84
2022-10-02T19:04:22.188Z,98415.91
2022-10-02T19:06:57.441Z,98408.06
2022-10-02T19:09:29.698Z,98413.22
2022-10-02T19:12:20.247Z,98405.47
2022-10-02T19:14:48.065Z,98408.75
2022-10-02T19:17:26.842Z,98413.88
2022-10-02T19:19:56.466Z,98403.63
2022-10-02T19:22:28.024Z,98411.81
2022-10-02T19:25:19.724Z,98405.59
2022-10-02T19:27:54.938Z,98402.13
2022-10-02T19:30:29.095Z,98398.22
2022-10-02T19:33:08.219Z,98401.31
2022-10-02T19:35:44.450Z,98399.06
2022-10-02T19:38:27.687Z,98399.59
2022-10-02T19:40:58.694Z,98402.66
2022-10-02T19:43:28.625Z,98405.34
2022-10-02T19:46:03.955Z,98398.00
2022-10-02T19:48:32.909Z,98403.41
2022-10-02T19:51:03.345Z,98406.56
2022-10-02T19:53:51.414Z,98408.56
2022-10-02T19:56:26.562Z,98408.81
2022-10-02T19:59:06.976Z,98406.28
2022-10-02T20:01:50.163Z,98387.91
2022-10-02T20:04:21.031Z,98418.91
2022-10-02T20:06:53.483Z,98411.53
2022-10-02T20:09:29.638Z,98407.69
2022-10-02T20:12:20.502Z,98400.72
2022-10-02T20:15:13.562Z,98408.81
2022-10-02T20:17:41.771Z,98401.63
2022-10-02T20:20:16.870Z,98409.44
2022-10-02T20:22:59.115Z,98409.88
2022-10-02T20:25:31.800Z,98404.22
2022-10-02T20:28:05.442Z,98403.88
2022-10-02T20:30:42.033Z,98404.91
2022-10-02T20:33:35.524Z,98413.13
2022-10-02T20:36:08.567Z,98405.34
2022-10-02T20:39:01.874Z,98405.47
2022-10-02T20:41:36.186Z,98405.38
2022-10-02T20:44:06.590Z,98399.69
2022-10-02T20:46:33.975Z,98405.25
2022-10-02T20:49:40.482Z,98401.69
2022-10-02T20:52:34.675Z,98396.63
2022-10-02T20:55:17.955Z,98398.19
2022-10-02T20:58:08.734Z,98401.34
2022-10-02T21:00:51.118Z,98406.72
2022-10-02T21:03:40.254Z,98400.28
2022-10-02T21:06:42.009Z,98404.19
2022-10-02T21:09:40.265Z,98404.88
2022-10-02T21:12:13.684Z,98412.34
2022-10-02T21:15:09.338Z,98408.94
2022-10-02T21:18:00.081Z,98414.84
2022-10-02T21:20:51.358Z,98419.97
2022-10-02T21:23:21.831Z,98411.31
2022-10-02T21:26:17.947Z,98411.28
2022-10-02T21:29:11.697Z,98400.88
2022-10-02T21:32:00.781Z,98405.53
2022-10-02T21:35:00.839Z,98413.88
2022-10-02T21:37:47.572Z,98408.09
2022-10-02T21:40:30.124Z,98399.09
2022-10-02T21:43:35.262Z,98407.50
2022-10-02T21:46:31.025Z,98407.72
2022-10-02T21:49:28.271Z,98397.66
2022-10-02T21:52:10.938Z,98398.34
2022-10-02T21:54:53.642Z,98406.84
2022-10-02T21:57:41.328Z,98406.50
2022-10-02T22:00:49.652Z,98405.16
2022-10-02T22:03:35.279Z,98396.34
2022-10-02T22:06:02.692Z,98407.44
2022-10-02T22:08:50.782Z,98405.19
2022-10-02T22:11:59.412Z,98422.78
2022-10-02T22:15:04.332Z,98409.56
2022-10-02T22:17:45.006Z,98413.50
2022-10-02T22:20:15.074Z,98402.50
2022-10-02T22:23:08.631Z,98402.84
2022-10-02T22:25:42.643Z,98403.03
2022-10-02T22:28:21.794Z,98402.03
2022-10-02T22:31:03.793Z,98414.94
2022-10-02T22:33:32.062Z,98407.88
2022-10-02T22:36:18.184Z,98405.19
2022-10-02T22:39:14.462Z,98404.94
2022-10-02T22:41:50.425Z,98410.59
2022-10-02T22:44:18.879Z,98407.97
2022-10-02T22:47:22.846Z,98408.84
2022-10-02T22:50:03.665Z,98401.13
2022-10-02T22:52:43.134Z,98403.38
2022-10-02T22:55:18.916Z,98402.56
2022-10-02T22:58:03.297Z,98402.78
2022-10-02T23:00:49.549Z,98404.34
2022-10-02T23:03:30.007Z,98397.84
2022-10-02T23:06:05.350Z,98395.84
2022-10-02T23:08:35.515Z,98400.00
2022-10-02T23:11:16.387Z,98401.75
2022-10-02T23:14:25.621Z,98395.44
2022-10-02T23:17:18.805Z,98403.97
2022-10-02T23:19:54.916Z,98402.88
2022-10-02T23:22:29.432Z,98391.31
2022-10-02T23:25:49.553Z,98387.09
2022-10-02T23:28:22.563Z,98391.16
2022-10-02T23:31:02.686Z,98393.94
2022-10-02T23:33:42.050Z,98391.94
2022-10-02T23:36:24.441Z,98393.63
2022-10-02T23:39:21.412Z,98386.38
2022-10-02T23:41:52.675Z,98399.50
2022-10-02T23:44:55.959Z,98396.84
2022-10-02T23:48:02.839Z,98395.34
2022-10-02T23:50:44.254Z,98400.56
2022-10-02T23:53:37.839Z,98402.25
2022-10-02T23:56:17.058Z,98393.81
2022-10-02T23:58:58.604Z,98387.97
